sensor_id;sensor_type;location;lat;lon;timestamp;temperature;humidity
71206;SHT31;58935;54.498;18.544;2022-10-22T00:01:34;9.63;78.76
71206;SHT31;58935;54.498;18.544;2022-10-22T00:04:00;9.65;78.63
71206;SHT31;58935;54.498;18.544;2022-10-22T00:06:26;9.65;78.61
71206;SHT31;58935;54.498;18.544;2022-10-22T00:08:51;9.67;78.50
71206;SHT31;58935;54.498;18.544;2022-10-22T00:11:17;9.66;78.47
71206;SHT31;58935;54.498;18.544;2022-10-22T00:13:43;9.63;78.46
71206;SHT31;58935;54.498;18.544;2022-10-22T00:16:10;9.59;78.51
71206;SHT31;58935;54.498;18.544;2022-10-22T00:18:36;9.56;78.51
71206;SHT31;58935;54.498;18.544;2022-10-22T00:21:01;9.51;78.60
71206;SHT31;58935;54.498;18.544;2022-10-22T00:23:27;9.46;78.72
71206;SHT31;58935;54.498;18.544;2022-10-22T00:25:53;9.44;78.82
71206;SHT31;58935;54.498;18.544;2022-10-22T00:28:19;9.42;78.82
71206;SHT31;58935;54.498;18.544;2022-10-22T00:30:44;9.39;78.91
71206;SHT31;58935;54.498;18.544;2022-10-22T00:33:10;9.37;78.90
71206;SHT31;58935;54.498;18.544;2022-10-22T00:35:35;9.37;79.12
71206;SHT31;58935;54.498;18.544;2022-10-22T00:38:01;9.38;79.06
71206;SHT31;58935;54.498;18.544;2022-10-22T00:40:26;9.38;79.09
71206;SHT31;58935;54.498;18.544;2022-10-22T00:42:51;9.39;79.06
71206;SHT31;58935;54.498;18.544;2022-10-22T00:45:20;9.41;79.05
71206;SHT31;58935;54.498;18.544;2022-10-22T00:47:51;9.38;79.00
71206;SHT31;58935;54.498;18.544;2022-10-22T00:52:56;9.40;79.50
71206;SHT31;58935;54.498;18.544;2022-10-22T00:55:23;9.44;79.27
71206;SHT31;58935;54.498;18.544;2022-10-22T00:57:50;9.47;79.10
71206;SHT31;58935;54.498;18.544;2022-10-22T01:00:16;9.46;78.97
71206;SHT31;58935;54.498;18.544;2022-10-22T01:02:42;9.43;78.99
71206;SHT31;58935;54.498;18.544;2022-10-22T01:05:08;9.37;79.09
71206;SHT31;58935;54.498;18.544;2022-10-22T01:07:35;9.35;79.33
71206;SHT31;58935;54.498;18.544;2022-10-22T01:10:08;9.36;79.55
71206;SHT31;58935;54.498;18.544;2022-10-22T01:12:45;9.37;79.46
71206;SHT31;58935;54.498;18.544;2022-10-22T01:15:21;9.37;79.56
71206;SHT31;58935;54.498;18.544;2022-10-22T01:17:57;9.39;79.49
71206;SHT31;58935;54.498;18.544;2022-10-22T01:20:31;9.40;79.43
71206;SHT31;58935;54.498;18.544;2022-10-22T01:23:16;9.43;79.50
71206;SHT31;58935;54.498;18.544;2022-10-22T01:26:07;9.49;79.58
71206;SHT31;58935;54.498;18.544;2022-10-22T01:28:48;9.53;79.37
71206;SHT31;58935;54.498;18.544;2022-10-22T01:31:20;9.54;79.36
71206;SHT31;58935;54.498;18.544;2022-10-22T01:33:47;9.55;79.40
71206;SHT31;58935;54.498;18.544;2022-10-22T01:36:15;9.58;79.49
71206;SHT31;58935;54.498;18.544;2022-10-22T01:38:42;9.63;79.45
71206;SHT31;58935;54.498;18.544;2022-10-22T01:41:09;9.65;79.37
71206;SHT31;58935;54.498;18.544;2022-10-22T01:43:35;9.67;79.38
71206;SHT31;58935;54.498;18.544;2022-10-22T01:46:01;9.69;79.25
71206;SHT31;58935;54.498;18.544;2022-10-22T01:48:33;9.70;79.20
71206;SHT31;58935;54.498;18.544;2022-10-22T01:51:16;9.71;79.10
71206;SHT31;58935;54.498;18.544;2022-10-22T01:53:53;9.71;79.11
71206;SHT31;58935;54.498;18.544;2022-10-22T01:56:29;9.72;79.01
71206;SHT31;58935;54.498;18.544;2022-10-22T01:59:11;9.69;78.98
71206;SHT31;58935;54.498;18.544;2022-10-22T02:01:53;9.67;79.15
71206;SHT31;58935;54.498;18.544;2022-10-22T02:04:29;9.70;79.11
71206;SHT31;58935;54.498;18.544;2022-10-22T02:07:01;9.69;79.09
71206;SHT31;58935;54.498;18.544;2022-10-22T02:09:30;9.68;79.14
71206;SHT31;58935;54.498;18.544;2022-10-22T02:11:59;9.67;79.19
71206;SHT31;58935;54.498;18.544;2022-10-22T02:14:27;9.64;79.26
71206;SHT31;58935;54.498;18.544;2022-10-22T02:16:55;9.65;79.30
71206;SHT31;58935;54.498;18.544;2022-10-22T02:19:26;9.64;79.33
71206;SHT31;58935;54.498;18.544;2022-10-22T02:21:59;9.65;79.38
71206;SHT31;58935;54.498;18.544;2022-10-22T02:24:25;9.67;79.40
71206;SHT31;58935;54.498;18.544;2022-10-22T02:26:53;9.69;79.36
71206;SHT31;58935;54.498;18.544;2022-10-22T02:29:33;9.70;79.31
71206;SHT31;58935;54.498;18.544;2022-10-22T02:32:03;9.70;79.32
71206;SHT31;58935;54.498;18.544;2022-10-22T02:34:33;9.72;79.37
71206;SHT31;58935;54.498;18.544;2022-10-22T02:36:59;9.73;79.30
71206;SHT31;58935;54.498;18.544;2022-10-22T02:39:26;9.75;79.27
71206;SHT31;58935;54.498;18.544;2022-10-22T02:41:53;9.76;79.13
71206;SHT31;58935;54.498;18.544;2022-10-22T02:44:20;9.77;79.17
71206;SHT31;58935;54.498;18.544;2022-10-22T02:46:46;9.77;79.05
71206;SHT31;58935;54.498;18.544;2022-10-22T02:49:12;9.79;79.07
71206;SHT31;58935;54.498;18.544;2022-10-22T02:51:37;9.79;79.01
71206;SHT31;58935;54.498;18.544;2022-10-22T02:54:03;9.81;79.04
71206;SHT31;58935;54.498;18.544;2022-10-22T02:56:28;9.81;79.00
71206;SHT31;58935;54.498;18.544;2022-10-22T02:58:53;9.81;79.03
71206;SHT31;58935;54.498;18.544;2022-10-22T03:01:19;9.81;78.99
71206;SHT31;58935;54.498;18.544;2022-10-22T03:03:44;9.81;79.01
71206;SHT31;58935;54.498;18.544;2022-10-22T03:06:09;9.81;79.08
71206;SHT31;58935;54.498;18.544;2022-10-22T03:08:35;9.82;79.08
71206;SHT31;58935;54.498;18.544;2022-10-22T03:11:00;9.83;79.13
71206;SHT31;58935;54.498;18.544;2022-10-22T03:13:25;9.84;79.07
71206;SHT31;58935;54.498;18.544;2022-10-22T03:15:50;9.85;79.10
71206;SHT31;58935;54.498;18.544;2022-10-22T03:18:16;9.86;79.14
71206;SHT31;58935;54.498;18.544;2022-10-22T03:20:42;9.88;79.17
71206;SHT31;58935;54.498;18.544;2022-10-22T03:23:08;9.89;79.13
71206;SHT31;58935;54.498;18.544;2022-10-22T03:25:34;9.91;79.22
71206;SHT31;58935;54.498;18.544;2022-10-22T03:28:02;9.95;79.18
71206;SHT31;58935;54.498;18.544;2022-10-22T03:30:30;9.96;79.12
71206;SHT31;58935;54.498;18.544;2022-10-22T03:32:56;9.98;79.16
71206;SHT31;58935;54.498;18.544;2022-10-22T03:35:21;9.99;79.12
71206;SHT31;58935;54.498;18.544;2022-10-22T03:37:47;10.00;79.16
71206;SHT31;58935;54.498;18.544;2022-10-22T03:40:13;10.02;79.07
71206;SHT31;58935;54.498;18.544;2022-10-22T03:42:39;10.03;79.11
71206;SHT31;58935;54.498;18.544;2022-10-22T03:45:06;10.06;79.18
71206;SHT31;58935;54.498;18.544;2022-10-22T03:47:32;10.09;79.19
71206;SHT31;58935;54.498;18.544;2022-10-22T03:49:57;10.13;79.16
71206;SHT31;58935;54.498;18.544;2022-10-22T03:52:22;10.15;79.09
71206;SHT31;58935;54.498;18.544;2022-10-22T03:54:48;10.16;79.12
71206;SHT31;58935;54.498;18.544;2022-10-22T03:57:13;10.18;79.04
71206;SHT31;58935;54.498;18.544;2022-10-22T03:59:40;10.18;79.11
71206;SHT31;58935;54.498;18.544;2022-10-22T04:02:06;10.17;79.10
71206;SHT31;58935;54.498;18.544;2022-10-22T04:04:32;10.20;79.22
71206;SHT31;58935;54.498;18.544;2022-10-22T04:06:57;10.23;79.21
71206;SHT31;58935;54.498;18.544;2022-10-22T04:09:23;10.26;79.21
71206;SHT31;58935;54.498;18.544;2022-10-22T04:11:49;10.29;79.21
71206;SHT31;58935;54.498;18.544;2022-10-22T04:14:14;10.33;79.26
71206;SHT31;58935;54.498;18.544;2022-10-22T04:16:39;10.37;79.30
71206;SHT31;58935;54.498;18.544;2022-10-22T04:19:05;10.41;79.20
71206;SHT31;58935;54.498;18.544;2022-10-22T04:21:31;10.44;79.20
71206;SHT31;58935;54.498;18.544;2022-10-22T04:23:57;10.47;79.13
71206;SHT31;58935;54.498;18.544;2022-10-22T04:26:22;10.45;79.13
71206;SHT31;58935;54.498;18.544;2022-10-22T04:28:48;10.44;79.23
71206;SHT31;58935;54.498;18.544;2022-10-22T04:31:16;10.47;79.26
71206;SHT31;58935;54.498;18.544;2022-10-22T04:33:43;10.49;79.27
71206;SHT31;58935;54.498;18.544;2022-10-22T04:36:10;10.50;79.20
71206;SHT31;58935;54.498;18.544;2022-10-22T04:38:37;10.52;79.20
71206;SHT31;58935;54.498;18.544;2022-10-22T04:43:34;10.53;79.29
71206;SHT31;58935;54.498;18.544;2022-10-22T04:45:59;10.55;79.22
71206;SHT31;58935;54.498;18.544;2022-10-22T04:48:25;10.57;79.13
71206;SHT31;58935;54.498;18.544;2022-10-22T04:50:50;10.57;79.12
71206;SHT31;58935;54.498;18.544;2022-10-22T04:53:15;10.57;79.10
71206;SHT31;58935;54.498;18.544;2022-10-22T04:55:41;10.56;79.20
71206;SHT31;58935;54.498;18.544;2022-10-22T04:58:06;10.58;79.23
71206;SHT31;58935;54.498;18.544;2022-10-22T05:00:31;10.60;79.29
71206;SHT31;58935;54.498;18.544;2022-10-22T05:02:57;10.62;79.29
71206;SHT31;58935;54.498;18.544;2022-10-22T05:05:22;10.64;79.24
71206;SHT31;58935;54.498;18.544;2022-10-22T05:07:49;10.65;79.12
71206;SHT31;58935;54.498;18.544;2022-10-22T05:10:15;10.65;79.23
71206;SHT31;58935;54.498;18.544;2022-10-22T05:12:41;10.67;79.18
71206;SHT31;58935;54.498;18.544;2022-10-22T05:15:06;10.67;79.20
71206;SHT31;58935;54.498;18.544;2022-10-22T05:17:34;10.70;79.14
71206;SHT31;58935;54.498;18.544;2022-10-22T05:20:01;10.70;79.14
71206;SHT31;58935;54.498;18.544;2022-10-22T05:22:27;10.70;79.04
71206;SHT31;58935;54.498;18.544;2022-10-22T05:24:52;10.71;79.14
71206;SHT31;58935;54.498;18.544;2022-10-22T05:27:17;10.74;79.23
71206;SHT31;58935;54.498;18.544;2022-10-22T05:29:43;10.74;79.03
71206;SHT31;58935;54.498;18.544;2022-10-22T05:32:08;10.71;79.06
71206;SHT31;58935;54.498;18.544;2022-10-22T05:34:33;10.63;79.13
71206;SHT31;58935;54.498;18.544;2022-10-22T05:37:00;10.54;79.40
71206;SHT31;58935;54.498;18.544;2022-10-22T05:39:25;10.51;79.64
71206;SHT31;58935;54.498;18.544;2022-10-22T05:41:51;10.50;79.70
71206;SHT31;58935;54.498;18.544;2022-10-22T05:44:17;10.51;79.79
71206;SHT31;58935;54.498;18.544;2022-10-22T05:46:43;10.53;79.82
71206;SHT31;58935;54.498;18.544;2022-10-22T05:49:11;10.49;79.82
71206;SHT31;58935;54.498;18.544;2022-10-22T05:51:37;10.50;80.08
71206;SHT31;58935;54.498;18.544;2022-10-22T05:54:04;10.53;80.12
71206;SHT31;58935;54.498;18.544;2022-10-22T05:56:31;10.56;80.09
71206;SHT31;58935;54.498;18.544;2022-10-22T05:58:57;10.62;80.24
71206;SHT31;58935;54.498;18.544;2022-10-22T06:01:24;10.69;80.17
71206;SHT31;58935;54.498;18.544;2022-10-22T06:03:53;10.77;79.97
71206;SHT31;58935;54.498;18.544;2022-10-22T06:06:21;10.81;79.69
71206;SHT31;58935;54.498;18.544;2022-10-22T06:08:53;10.82;79.42
71206;SHT31;58935;54.498;18.544;2022-10-22T06:11:20;10.82;79.33
71206;SHT31;58935;54.498;18.544;2022-10-22T06:13:46;10.83;79.33
71206;SHT31;58935;54.498;18.544;2022-10-22T06:16:13;10.86;79.30
71206;SHT31;58935;54.498;18.544;2022-10-22T06:18:38;10.86;79.21
71206;SHT31;58935;54.498;18.544;2022-10-22T06:21:05;10.86;79.22
71206;SHT31;58935;54.498;18.544;2022-10-22T06:23:32;10.89;79.20
71206;SHT31;58935;54.498;18.544;2022-10-22T06:25:58;10.90;79.17
71206;SHT31;58935;54.498;18.544;2022-10-22T06:28:24;10.89;79.10
71206;SHT31;58935;54.498;18.544;2022-10-22T06:30:49;10.87;79.05
71206;SHT31;58935;54.498;18.544;2022-10-22T06:33:15;10.86;79.28
71206;SHT31;58935;54.498;18.544;2022-10-22T06:35:40;10.86;79.33
71206;SHT31;58935;54.498;18.544;2022-10-22T06:38:05;10.87;79.25
71206;SHT31;58935;54.498;18.544;2022-10-22T06:40:31;10.88;79.20
71206;SHT31;58935;54.498;18.544;2022-10-22T06:42:58;10.89;79.33
71206;SHT31;58935;54.498;18.544;2022-10-22T06:45:25;10.93;79.40
71206;SHT31;58935;54.498;18.544;2022-10-22T06:47:50;10.97;79.41
71206;SHT31;58935;54.498;18.544;2022-10-22T06:50:15;11.02;79.39
71206;SHT31;58935;54.498;18.544;2022-10-22T06:52:41;11.05;79.48
71206;SHT31;58935;54.498;18.544;2022-10-22T06:55:06;11.13;79.48
71206;SHT31;58935;54.498;18.544;2022-10-22T06:57:32;11.19;79.22
71206;SHT31;58935;54.498;18.544;2022-10-22T06:59:57;11.21;79.14
71206;SHT31;58935;54.498;18.544;2022-10-22T07:02:22;11.23;79.29
71206;SHT31;58935;54.498;18.544;2022-10-22T07:04:48;11.28;79.46
71206;SHT31;58935;54.498;18.544;2022-10-22T07:07:13;11.32;79.48
71206;SHT31;58935;54.498;18.544;2022-10-22T07:09:39;11.35;79.50
71206;SHT31;58935;54.498;18.544;2022-10-22T07:12:04;11.35;79.49
71206;SHT31;58935;54.498;18.544;2022-10-22T07:14:30;11.36;79.47
71206;SHT31;58935;54.498;18.544;2022-10-22T07:16:56;11.37;79.68
71206;SHT31;58935;54.498;18.544;2022-10-22T07:19:21;11.39;79.56
71206;SHT31;58935;54.498;18.544;2022-10-22T07:21:46;11.43;79.49
71206;SHT31;58935;54.498;18.544;2022-10-22T07:24:12;11.46;79.52
71206;SHT31;58935;54.498;18.544;2022-10-22T07:26:37;11.52;79.60
71206;SHT31;58935;54.498;18.544;2022-10-22T07:29:02;11.59;79.71
71206;SHT31;58935;54.498;18.544;2022-10-22T07:31:29;11.67;79.69
71206;SHT31;58935;54.498;18.544;2022-10-22T07:33:54;11.73;79.56
71206;SHT31;58935;54.498;18.544;2022-10-22T07:36:20;11.80;79.45
71206;SHT31;58935;54.498;18.544;2022-10-22T07:38:48;11.85;79.29
71206;SHT31;58935;54.498;18.544;2022-10-22T07:41:19;11.87;79.23
71206;SHT31;58935;54.498;18.544;2022-10-22T07:43:45;11.90;79.29
71206;SHT31;58935;54.498;18.544;2022-10-22T07:46:10;11.92;79.24
71206;SHT31;58935;54.498;18.544;2022-10-22T07:48:36;11.95;79.25
71206;SHT31;58935;54.498;18.544;2022-10-22T07:51:01;11.95;79.10
71206;SHT31;58935;54.498;18.544;2022-10-22T07:53:28;11.94;79.06
71206;SHT31;58935;54.498;18.544;2022-10-22T07:55:53;11.93;79.17
71206;SHT31;58935;54.498;18.544;2022-10-22T07:58:19;11.95;79.37
71206;SHT31;58935;54.498;18.544;2022-10-22T08:00:46;11.97;79.43
71206;SHT31;58935;54.498;18.544;2022-10-22T08:03:13;11.99;79.46
71206;SHT31;58935;54.498;18.544;2022-10-22T08:05:40;12.00;79.56
71206;SHT31;58935;54.498;18.544;2022-10-22T08:08:08;12.02;79.76
71206;SHT31;58935;54.498;18.544;2022-10-22T08:10:34;12.02;79.78
71206;SHT31;58935;54.498;18.544;2022-10-22T08:12:59;12.03;79.99
71206;SHT31;58935;54.498;18.544;2022-10-22T08:15:24;12.05;80.07
71206;SHT31;58935;54.498;18.544;2022-10-22T08:17:51;12.06;80.10
71206;SHT31;58935;54.498;18.544;2022-10-22T08:20:17;12.08;79.93
71206;SHT31;58935;54.498;18.544;2022-10-22T08:22:43;12.04;79.87
71206;SHT31;58935;54.498;18.544;2022-10-22T08:25:09;12.03;80.02
71206;SHT31;58935;54.498;18.544;2022-10-22T08:27:34;12.00;80.00
71206;SHT31;58935;54.498;18.544;2022-10-22T08:30:00;11.99;80.13
71206;SHT31;58935;54.498;18.544;2022-10-22T08:32:25;11.99;80.27
71206;SHT31;58935;54.498;18.544;2022-10-22T08:34:51;11.98;80.40
71206;SHT31;58935;54.498;18.544;2022-10-22T08:37:16;11.99;80.73
71206;SHT31;58935;54.498;18.544;2022-10-22T08:39:42;12.02;80.76
71206;SHT31;58935;54.498;18.544;2022-10-22T08:43:15;12.06;80.77
71206;SHT31;58935;54.498;18.544;2022-10-22T08:47:32;12.24;81.16
71206;SHT31;58935;54.498;18.544;2022-10-22T08:50:02;12.33;80.79
71206;SHT31;58935;54.498;18.544;2022-10-22T08:52:29;12.33;80.40
71206;SHT31;58935;54.498;18.544;2022-10-22T08:54:58;12.32;80.43
71206;SHT31;58935;54.498;18.544;2022-10-22T08:57:30;12.32;80.46
71206;SHT31;58935;54.498;18.544;2022-10-22T09:00:23;12.29;80.55
71206;SHT31;58935;54.498;18.544;2022-10-22T09:05:47;12.25;80.33
71206;SHT31;58935;54.498;18.544;2022-10-22T09:08:27;12.23;80.28
71206;SHT31;58935;54.498;18.544;2022-10-22T09:10:56;12.24;80.46
71206;SHT31;58935;54.498;18.544;2022-10-22T09:13:26;12.30;80.70
71206;SHT31;58935;54.498;18.544;2022-10-22T09:15:52;12.38;80.68
71206;SHT31;58935;54.498;18.544;2022-10-22T09:18:25;12.46;80.69
71206;SHT31;58935;54.498;18.544;2022-10-22T09:20:55;12.55;80.80
71206;SHT31;58935;54.498;18.544;2022-10-22T09:23:32;12.61;80.56
71206;SHT31;58935;54.498;18.544;2022-10-22T09:26:08;12.64;80.58
71206;SHT31;58935;54.498;18.544;2022-10-22T09:28:37;12.67;80.50
71206;SHT31;58935;54.498;18.544;2022-10-22T09:31:07;12.70;80.25
71206;SHT31;58935;54.498;18.544;2022-10-22T09:33:35;12.75;80.31
71206;SHT31;58935;54.498;18.544;2022-10-22T09:36:01;12.83;80.48
71206;SHT31;58935;54.498;18.544;2022-10-22T09:38:31;12.93;80.40
71206;SHT31;58935;54.498;18.544;2022-10-22T09:41:00;12.99;80.33
71206;SHT31;58935;54.498;18.544;2022-10-22T09:43:27;13.03;80.29
71206;SHT31;58935;54.498;18.544;2022-10-22T09:45:55;13.07;80.19
71206;SHT31;58935;54.498;18.544;2022-10-22T09:48:27;13.13;80.09
71206;SHT31;58935;54.498;18.544;2022-10-22T09:53:27;13.21;79.58
71206;SHT31;58935;54.498;18.544;2022-10-22T09:55:56;13.24;79.54
71206;SHT31;58935;54.498;18.544;2022-10-22T09:58:23;13.28;79.34
71206;SHT31;58935;54.498;18.544;2022-10-22T10:00:52;13.34;79.14
71206;SHT31;58935;54.498;18.544;2022-10-22T10:03:21;13.38;79.10
71206;SHT31;58935;54.498;18.544;2022-10-22T10:05:51;13.38;79.01
71206;SHT31;58935;54.498;18.544;2022-10-22T10:08:18;13.39;78.91
71206;SHT31;58935;54.498;18.544;2022-10-22T10:10:46;13.37;78.71
71206;SHT31;58935;54.498;18.544;2022-10-22T10:15:49;13.35;78.56
71206;SHT31;58935;54.498;18.544;2022-10-22T10:23:27;13.43;78.93
71206;SHT31;58935;54.498;18.544;2022-10-22T10:31:33;13.48;78.74
71206;SHT31;58935;54.498;18.544;2022-10-22T10:34:12;13.50;78.88
71206;SHT31;58935;54.498;18.544;2022-10-22T10:39:23;13.59;78.94
71206;SHT31;58935;54.498;18.544;2022-10-22T10:42:00;13.66;78.93
71206;SHT31;58935;54.498;18.544;2022-10-22T10:47:26;13.82;78.53
71206;SHT31;58935;54.498;18.544;2022-10-22T10:50:14;13.88;78.15
71206;SHT31;58935;54.498;18.544;2022-10-22T10:55:27;13.91;78.02
71206;SHT31;58935;54.498;18.544;2022-10-22T10:58:02;13.90;77.86
71206;SHT31;58935;54.498;18.544;2022-10-22T11:00:40;13.86;77.78
71206;SHT31;58935;54.498;18.544;2022-10-22T11:03:22;13.83;77.75
71206;SHT31;58935;54.498;18.544;2022-10-22T11:05:59;13.83;77.89
71206;SHT31;58935;54.498;18.544;2022-10-22T11:08:29;13.87;77.91
71206;SHT31;58935;54.498;18.544;2022-10-22T11:11:00;13.90;77.82
71206;SHT31;58935;54.498;18.544;2022-10-22T11:13:33;13.93;78.04
71206;SHT31;58935;54.498;18.544;2022-10-22T11:16:04;13.96;78.16
71206;SHT31;58935;54.498;18.544;2022-10-22T11:18:41;14.00;78.01
71206;SHT31;58935;54.498;18.544;2022-10-22T11:21:15;13.99;77.94
71206;SHT31;58935;54.498;18.544;2022-10-22T11:23:54;13.95;77.67
71206;SHT31;58935;54.498;18.544;2022-10-22T11:26:28;13.92;77.84
71206;SHT31;58935;54.498;18.544;2022-10-22T11:29:01;13.93;77.96
71206;SHT31;58935;54.498;18.544;2022-10-22T11:31:30;13.88;77.98
71206;SHT31;58935;54.498;18.544;2022-10-22T11:34:00;13.81;78.11
71206;SHT31;58935;54.498;18.544;2022-10-22T11:36:36;13.76;78.38
71206;SHT31;58935;54.498;18.544;2022-10-22T11:39:02;13.71;78.34
71206;SHT31;58935;54.498;18.544;2022-10-22T11:41:28;13.67;78.52
71206;SHT31;58935;54.498;18.544;2022-10-22T11:43:58;13.63;78.71
71206;SHT31;58935;54.498;18.544;2022-10-22T11:49:17;13.58;78.98
71206;SHT31;58935;54.498;18.544;2022-10-22T11:51:46;13.57;79.01
71206;SHT31;58935;54.498;18.544;2022-10-22T11:56:43;13.57;79.09
71206;SHT31;58935;54.498;18.544;2022-10-22T11:59:29;13.57;79.15
71206;SHT31;58935;54.498;18.544;2022-10-22T12:02:01;13.57;79.27
71206;SHT31;58935;54.498;18.544;2022-10-22T12:07:24;13.65;79.48
71206;SHT31;58935;54.498;18.544;2022-10-22T12:09:56;13.75;79.32
71206;SHT31;58935;54.498;18.544;2022-10-22T12:12:22;13.83;79.17
71206;SHT31;58935;54.498;18.544;2022-10-22T12:14:50;13.88;79.08
71206;SHT31;58935;54.498;18.544;2022-10-22T12:17:17;13.90;78.91
71206;SHT31;58935;54.498;18.544;2022-10-22T12:19:45;13.91;78.92
71206;SHT31;58935;54.498;18.544;2022-10-22T12:22:16;13.93;79.00
71206;SHT31;58935;54.498;18.544;2022-10-22T12:24:46;13.93;78.91
71206;SHT31;58935;54.498;18.544;2022-10-22T12:27:17;13.94;78.99
71206;SHT31;58935;54.498;18.544;2022-10-22T12:29:46;13.92;78.99
71206;SHT31;58935;54.498;18.544;2022-10-22T12:32:13;13.91;79.13
71206;SHT31;58935;54.498;18.544;2022-10-22T12:37:10;13.85;79.39
71206;SHT31;58935;54.498;18.544;2022-10-22T12:39:37;13.83;79.63
71206;SHT31;58935;54.498;18.544;2022-10-22T12:42:03;13.84;79.80
71206;SHT31;58935;54.498;18.544;2022-10-22T12:44:30;13.82;79.78
71206;SHT31;58935;54.498;18.544;2022-10-22T12:46:56;13.77;79.91
71206;SHT31;58935;54.498;18.544;2022-10-22T12:49:29;13.75;80.08
71206;SHT31;58935;54.498;18.544;2022-10-22T12:52:02;13.74;80.27
71206;SHT31;58935;54.498;18.544;2022-10-22T12:54:30;13.76;80.32
71206;SHT31;58935;54.498;18.544;2022-10-22T12:56:57;13.75;80.40
71206;SHT31;58935;54.498;18.544;2022-10-22T12:59:25;13.75;80.45
71206;SHT31;58935;54.498;18.544;2022-10-22T13:01:53;13.74;80.58
71206;SHT31;58935;54.498;18.544;2022-10-22T13:04:30;13.74;80.70
71206;SHT31;58935;54.498;18.544;2022-10-22T13:12:03;13.69;81.21
71206;SHT31;58935;54.498;18.544;2022-10-22T13:14:31;13.70;81.27
71206;SHT31;58935;54.498;18.544;2022-10-22T13:17:01;13.71;81.38
71206;SHT31;58935;54.498;18.544;2022-10-22T13:21:59;13.72;81.68
71206;SHT31;58935;54.498;18.544;2022-10-22T13:24:24;13.72;81.75
71206;SHT31;58935;54.498;18.544;2022-10-22T13:26:50;13.67;81.82
71206;SHT31;58935;54.498;18.544;2022-10-22T13:29:18;13.63;82.01
71206;SHT31;58935;54.498;18.544;2022-10-22T13:31:46;13.63;82.07
71206;SHT31;58935;54.498;18.544;2022-10-22T13:34:14;13.54;82.26
71206;SHT31;58935;54.498;18.544;2022-10-22T13:36:43;13.53;82.48
71206;SHT31;58935;54.498;18.544;2022-10-22T13:39:12;13.53;82.59
71206;SHT31;58935;54.498;18.544;2022-10-22T13:41:46;13.57;82.66
71206;SHT31;58935;54.498;18.544;2022-10-22T13:44:14;13.61;82.61
71206;SHT31;58935;54.498;18.544;2022-10-22T13:46:39;13.62;82.67
71206;SHT31;58935;54.498;18.544;2022-10-22T13:49:09;13.61;82.64
71206;SHT31;58935;54.498;18.544;2022-10-22T13:51:39;13.60;82.71
71206;SHT31;58935;54.498;18.544;2022-10-22T13:54:09;13.58;82.90
71206;SHT31;58935;54.498;18.544;2022-10-22T13:56:39;13.58;83.05
71206;SHT31;58935;54.498;18.544;2022-10-22T13:59:04;13.60;83.10
71206;SHT31;58935;54.498;18.544;2022-10-22T14:01:29;13.64;83.11
71206;SHT31;58935;54.498;18.544;2022-10-22T14:03:55;13.65;83.15
71206;SHT31;58935;54.498;18.544;2022-10-22T14:06:23;13.69;83.24
71206;SHT31;58935;54.498;18.544;2022-10-22T14:08:53;13.69;83.23
71206;SHT31;58935;54.498;18.544;2022-10-22T14:11:22;13.69;83.27
71206;SHT31;58935;54.498;18.544;2022-10-22T14:13:48;13.70;83.34
71206;SHT31;58935;54.498;18.544;2022-10-22T14:16:18;13.69;83.40
71206;SHT31;58935;54.498;18.544;2022-10-22T14:18:45;13.69;83.50
71206;SHT31;58935;54.498;18.544;2022-10-22T14:21:12;13.68;83.63
71206;SHT31;58935;54.498;18.544;2022-10-22T14:23:39;13.66;83.74
71206;SHT31;58935;54.498;18.544;2022-10-22T14:26:05;13.66;83.88
71206;SHT31;58935;54.498;18.544;2022-10-22T14:28:32;13.68;83.93
71206;SHT31;58935;54.498;18.544;2022-10-22T14:30:58;13.73;84.04
71206;SHT31;58935;54.498;18.544;2022-10-22T14:33:25;13.79;84.00
71206;SHT31;58935;54.498;18.544;2022-10-22T14:35:53;13.81;83.82
71206;SHT31;58935;54.498;18.544;2022-10-22T14:38:19;13.83;83.90
71206;SHT31;58935;54.498;18.544;2022-10-22T14:40:45;13.81;83.90
71206;SHT31;58935;54.498;18.544;2022-10-22T14:43:11;13.81;83.99
71206;SHT31;58935;54.498;18.544;2022-10-22T14:45:42;13.83;83.94
71206;SHT31;58935;54.498;18.544;2022-10-22T14:48:08;13.83;84.03
71206;SHT31;58935;54.498;18.544;2022-10-22T14:50:33;13.84;84.03
71206;SHT31;58935;54.498;18.544;2022-10-22T14:52:58;13.85;84.17
71206;SHT31;58935;54.498;18.544;2022-10-22T14:55:24;13.83;84.20
71206;SHT31;58935;54.498;18.544;2022-10-22T14:57:51;13.80;84.28
71206;SHT31;58935;54.498;18.544;2022-10-22T15:00:17;13.78;84.37
71206;SHT31;58935;54.498;18.544;2022-10-22T15:02:44;13.79;84.40
71206;SHT31;58935;54.498;18.544;2022-10-22T15:05:10;13.80;84.44
71206;SHT31;58935;54.498;18.544;2022-10-22T15:07:36;13.83;84.47
71206;SHT31;58935;54.498;18.544;2022-10-22T15:10:02;13.82;84.51
71206;SHT31;58935;54.498;18.544;2022-10-22T15:12:29;13.81;84.55
71206;SHT31;58935;54.498;18.544;2022-10-22T15:14:54;13.79;84.61
71206;SHT31;58935;54.498;18.544;2022-10-22T15:17:19;13.78;84.67
71206;SHT31;58935;54.498;18.544;2022-10-22T15:19:45;13.77;84.71
71206;SHT31;58935;54.498;18.544;2022-10-22T15:22:11;13.77;84.90
71206;SHT31;58935;54.498;18.544;2022-10-22T15:24:37;13.77;84.99
71206;SHT31;58935;54.498;18.544;2022-10-22T15:27:03;13.80;84.94
71206;SHT31;58935;54.498;18.544;2022-10-22T15:29:29;13.83;84.99
71206;SHT31;58935;54.498;18.544;2022-10-22T15:31:56;13.86;84.94
71206;SHT31;58935;54.498;18.544;2022-10-22T15:34:24;13.89;84.90
71206;SHT31;58935;54.498;18.544;2022-10-22T15:36:53;13.93;84.84
71206;SHT31;58935;54.498;18.544;2022-10-22T15:39:20;13.93;84.87
71206;SHT31;58935;54.498;18.544;2022-10-22T15:41:47;13.93;84.88
71206;SHT31;58935;54.498;18.544;2022-10-22T15:44:13;13.94;84.90
71206;SHT31;58935;54.498;18.544;2022-10-22T15:46:40;13.95;84.90
71206;SHT31;58935;54.498;18.544;2022-10-22T15:49:05;13.97;84.89
71206;SHT31;58935;54.498;18.544;2022-10-22T15:51:31;13.98;84.97
71206;SHT31;58935;54.498;18.544;2022-10-22T15:53:57;13.99;84.92
71206;SHT31;58935;54.498;18.544;2022-10-22T15:56:24;13.99;85.08
71206;SHT31;58935;54.498;18.544;2022-10-22T15:58:52;13.98;85.12
71206;SHT31;58935;54.498;18.544;2022-10-22T16:01:19;13.97;85.20
71206;SHT31;58935;54.498;18.544;2022-10-22T16:03:44;13.97;85.33
71206;SHT31;58935;54.498;18.544;2022-10-22T16:06:09;13.96;85.47
71206;SHT31;58935;54.498;18.544;2022-10-22T16:08:35;13.94;85.68
71206;SHT31;58935;54.498;18.544;2022-10-22T16:11:01;13.94;85.87
71206;SHT31;58935;54.498;18.544;2022-10-22T16:13:26;13.94;85.95
71206;SHT31;58935;54.498;18.544;2022-10-22T16:15:52;13.93;86.07
71206;SHT31;58935;54.498;18.544;2022-10-22T16:18:18;13.93;86.16